Time;durP1;ratioP1;P1;durP2;ratioP2;P2;SDS_P1;SDS_P2;PMS_P1;PMS_P2;Temp;Humidity;BMP_temperature;BMP_pressure;BME280_temperature;BME280_humidity;BME280_pressure;Samples;Min_cycle;Max_cycle;Signal;HPM_P1;HPM_P2
2022/11/25 00:03:51;;;;;;;6.78;5.40;;;;;;;;;;10487466;28;20210;-74
2022/11/25 00:08:57;;;;;;;5.75;5.25;;;;;;;;;;10483038;28;20282;-74
2022/11/25 00:13:59;;;;;;;7.85;5.00;;;;;;;;;;10501677;28;20634;-74
2022/11/25 00:19:00;;;;;;;7.50;5.70;;;;;;;;;;10482448;28;20747;-74
2022/11/25 00:24:02;;;;;;;5.78;5.10;;;;;;;;;;10500142;28;20304;-74
2022/11/25 00:29:04;;;;;;;5.53;4.25;;;;;;;;;;10498838;28;20228;-74
2022/11/25 00:34:06;;;;;;;5.05;4.55;;;;;;;;;;10496712;28;20222;-74
2022/11/25 00:39:11;;;;;;;4.25;3.92;;;;;;;;;;10486024;28;20202;-71
2022/11/25 00:49:33;;;;;;;6.93;4.45;;;;;;;;;;10487176;28;20217;-72
2022/11/25 00:54:35;;;;;;;4.18;3.65;;;;;;;;;;10480594;28;20240;-69
2022/11/25 00:59:36;;;;;;;5.57;3.47;;;;;;;;;;10483608;28;20202;-72
2022/11/25 01:04:37;;;;;;;5.47;4.20;;;;;;;;;;10503737;28;20221;-72
2022/11/25 01:09:38;;;;;;;5.03;3.67;;;;;;;;;;10493363;28;20209;-72
2022/11/25 01:14:40;;;;;;;3.00;2.78;;;;;;;;;;10490163;28;20739;-71
2022/11/25 01:19:41;;;;;;;6.10;3.78;;;;;;;;;;10492979;28;20224;-71
2022/11/25 01:24:42;;;;;;;6.78;3.42;;;;;;;;;;10490030;28;20281;-70
2022/11/25 01:29:43;;;;;;;4.07;3.42;;;;;;;;;;10506768;28;20229;-70
2022/11/25 01:34:44;;;;;;;3.53;3.35;;;;;;;;;;10486512;28;20698;-71
2022/11/25 01:39:45;;;;;;;3.28;3.03;;;;;;;;;;10508167;28;20205;-70
2022/11/25 01:45:06;;;;;;;3.05;2.78;;;;;;;;;;10490996;28;20296;-71
2022/11/25 01:50:10;;;;;;;3.60;3.28;;;;;;;;;;10502168;28;20201;-71
2022/11/25 01:55:17;;;;;;;2.90;2.70;;;;;;;;;;10500456;28;20201;-71
2022/11/25 02:00:18;;;;;;;3.35;3.15;;;;;;;;;;10486698;28;20247;-71
2022/11/25 02:05:25;;;;;;;3.47;3.15;;;;;;;;;;10490332;28;20613;-71
2022/11/25 02:10:28;;;;;;;5.35;3.00;;;;;;;;;;10502445;28;20755;-71
2022/11/25 02:15:31;;;;;;;3.22;3.03;;;;;;;;;;10502687;28;20230;-71
2022/11/25 02:20:32;;;;;;;5.88;3.90;;;;;;;;;;10485931;28;20243;-71
2022/11/25 02:25:35;;;;;;;5.05;3.28;;;;;;;;;;10490903;28;20221;-71
2022/11/25 02:30:39;;;;;;;4.97;3.22;;;;;;;;;;10465390;28;20799;-71
2022/11/25 02:35:42;;;;;;;5.38;2.83;;;;;;;;;;10484806;28;20274;-71
2022/11/25 02:40:45;;;;;;;4.82;3.20;;;;;;;;;;10487232;28;20222;-71
2022/11/25 02:46:06;;;;;;;2.60;2.28;;;;;;;;;;10487932;28;20206;-71
2022/11/25 02:51:09;;;;;;;2.67;2.47;;;;;;;;;;10486128;28;20217;-71
2022/11/25 02:56:10;;;;;;;4.38;2.92;;;;;;;;;;10491870;28;20301;-71
2022/11/25 03:01:12;;;;;;;3.83;2.53;;;;;;;;;;10495244;28;20206;-71
2022/11/25 03:06:13;;;;;;;2.58;2.47;;;;;;;;;;10484616;28;20213;-72
2022/11/25 03:11:14;;;;;;;2.67;2.40;;;;;;;;;;10504486;28;20213;-71
2022/11/25 03:16:17;;;;;;;2.22;1.95;;;;;;;;;;10473344;28;20225;-71
2022/11/25 03:21:18;;;;;;;4.57;2.78;;;;;;;;;;10484848;28;20214;-71
2022/11/25 03:26:20;;;;;;;2.55;2.35;;;;;;;;;;10499168;28;20209;-71
2022/11/25 03:31:21;;;;;;;2.55;2.35;;;;;;;;;;10502025;28;20842;-71
2022/11/25 03:36:22;;;;;;;2.90;2.70;;;;;;;;;;10486538;28;20301;-71
2022/11/25 03:41:23;;;;;;;2.20;2.10;;;;;;;;;;10486856;28;20209;-70
2022/11/25 03:46:25;;;;;;;3.75;2.63;;;;;;;;;;10486423;28;20209;-71
2022/11/25 03:51:28;;;;;;;5.07;2.75;;;;;;;;;;10495041;28;20208;-71
2022/11/25 03:56:29;;;;;;;2.45;2.25;;;;;;;;;;10500878;28;20555;-71
2022/11/25 04:01:31;;;;;;;3.55;2.55;;;;;;;;;;10480951;28;20213;-71
2022/11/25 04:06:32;;;;;;;2.33;2.13;;;;;;;;;;10482761;28;20205;-71
2022/11/25 04:16:55;;;;;;;2.90;2.38;;;;;;;;;;10496258;28;20633;-71
2022/11/25 04:21:58;;;;;;;2.30;1.92;;;;;;;;;;10466962;28;20217;-71
2022/11/25 04:27:00;;;;;;;3.78;2.58;;;;;;;;;;10447242;28;20217;-72
2022/11/25 04:32:01;;;;;;;2.17;2.05;;;;;;;;;;10451056;28;20311;-71
2022/11/25 04:37:03;;;;;;;3.50;2.20;;;;;;;;;;10446723;28;20245;-72
2022/11/25 04:47:24;;;;;;;1.80;1.70;;;;;;;;;;10467244;28;20624;-71
2022/11/25 04:52:26;;;;;;;2.72;2.30;;;;;;;;;;10460234;28;20602;-71
2022/11/25 04:57:27;;;;;;;3.53;2.28;;;;;;;;;;10448713;28;20217;-70
2022/11/25 05:02:29;;;;;;;5.03;2.38;;;;;;;;;;10461570;28;20296;-70
2022/11/25 05:07:38;;;;;;;8.63;2.97;;;;;;;;;;10461560;28;20221;-70
2022/11/25 05:12:40;;;;;;;3.22;2.25;;;;;;;;;;10440828;28;20634;-69
2022/11/25 05:17:46;;;;;;;3.92;2.38;;;;;;;;;;10456897;28;20202;-70
2022/11/25 05:22:48;;;;;;;4.50;2.38;;;;;;;;;;10493288;28;20328;-70
2022/11/25 05:27:54;;;;;;;5.15;2.25;;;;;;;;;;10485798;28;20772;-70
2022/11/25 05:32:56;;;;;;;2.40;2.10;;;;;;;;;;10483229;28;20218;-71
2022/11/25 05:37:59;;;;;;;8.15;2.80;;;;;;;;;;10481611;28;20326;-71
2022/11/25 05:43:01;;;;;;;3.45;2.00;;;;;;;;;;10492197;28;20324;-71
2022/11/25 05:48:04;;;;;;;4.70;2.42;;;;;;;;;;10459844;28;20418;-71
2022/11/25 05:53:07;;;;;;;5.32;1.92;;;;;;;;;;10463999;28;20214;-71
2022/11/25 05:58:09;;;;;;;3.17;2.65;;;;;;;;;;10470011;28;20218;-71
2022/11/25 06:03:11;;;;;;;4.53;2.20;;;;;;;;;;10479971;28;20402;-71
2022/11/25 06:08:12;;;;;;;4.60;2.10;;;;;;;;;;10504036;28;20317;-71
2022/11/25 06:13:13;;;;;;;4.35;2.47;;;;;;;;;;10496555;28;20304;-70
2022/11/25 06:18:15;;;;;;;5.18;2.75;;;;;;;;;;10494205;28;20355;-71
2022/11/25 06:23:16;;;;;;;3.72;2.65;;;;;;;;;;10486456;28;20214;-72
2022/11/25 06:28:19;;;;;;;4.80;3.05;;;;;;;;;;10494916;28;20247;-71
2022/11/25 06:33:23;;;;;;;10.25;3.65;;;;;;;;;;10481759;28;20221;-69
2022/11/25 06:38:25;;;;;;;4.07;3.33;;;;;;;;;;10479747;28;20684;-69
2022/11/25 06:43:26;;;;;;;2.88;2.63;;;;;;;;;;10498609;28;20209;-69
2022/11/25 06:48:27;;;;;;;7.05;3.63;;;;;;;;;;10497366;28;20229;-70
2022/11/25 06:53:28;;;;;;;5.18;3.13;;;;;;;;;;10495143;28;20226;-70
2022/11/25 06:58:30;;;;;;;3.53;3.17;;;;;;;;;;10500418;28;20216;-70
2022/11/25 07:03:31;;;;;;;6.10;3.00;;;;;;;;;;10502766;28;20208;-70
2022/11/25 07:08:32;;;;;;;5.55;2.53;;;;;;;;;;10500333;28;20767;-70
2022/11/25 07:13:36;;;;;;;5.25;3.50;;;;;;;;;;10497965;28;20309;-70
2022/11/25 07:18:39;;;;;;;8.25;4.93;;;;;;;;;;10501841;28;20197;-70
2022/11/25 07:23:41;;;;;;;14.73;7.00;;;;;;;;;;10504416;28;20213;-70
2022/11/25 07:28:43;;;;;;;4.80;3.65;;;;;;;;;;10502952;28;20253;-70
2022/11/25 07:33:44;;;;;;;7.53;4.03;;;;;;;;;;10500909;28;20270;-70
2022/11/25 07:38:45;;;;;;;11.07;4.55;;;;;;;;;;10501331;28;20278;-70
2022/11/25 07:43:47;;;;;;;5.38;3.72;;;;;;;;;;10498325;28;20264;-70
2022/11/25 07:48:52;;;;;;;6.50;3.65;;;;;;;;;;10482797;28;20214;-70
2022/11/25 07:53:54;;;;;;;6.07;3.65;;;;;;;;;;10481023;28;20217;-70
2022/11/25 07:58:56;;;;;;;9.23;3.60;;;;;;;;;;10498707;28;20210;-69
2022/11/25 08:03:57;;;;;;;3.78;3.47;;;;;;;;;;10494424;28;20244;-69
2022/11/25 08:08:58;;;;;;;9.73;4.95;;;;;;;;;;10504166;28;20304;-70
2022/11/25 08:14:00;;;;;;;6.75;3.72;;;;;;;;;;10500920;28;20217;-70
2022/11/25 08:19:02;;;;;;;7.93;3.42;;;;;;;;;;10483393;28;20228;-70
2022/11/25 08:24:04;;;;;;;6.68;4.40;;;;;;;;;;10498164;28;20233;-70
2022/11/25 08:29:06;;;;;;;3.90;3.47;;;;;;;;;;10496166;28;20216;-70
2022/11/25 08:34:07;;;;;;;5.10;3.75;;;;;;;;;;10483697;28;20222;-71
2022/11/25 08:39:09;;;;;;;11.90;4.40;;;;;;;;;;10500312;28;20233;-70
2022/11/25 08:44:12;;;;;;;6.72;5.07;;;;;;;;;;10494769;28;20689;-73
2022/11/25 08:49:16;;;;;;;9.57;4.90;;;;;;;;;;10500534;28;20214;-73
2022/11/25 08:54:17;;;;;;;8.50;4.82;;;;;;;;;;10505325;28;20209;-73
2022/11/25 08:59:18;;;;;;;5.05;4.57;;;;;;;;;;10490375;28;20209;-74
2022/11/25 09:04:19;;;;;;;6.30;3.90;;;;;;;;;;10489360;28;20218;-74
2022/11/25 09:09:20;;;;;;;7.25;3.85;;;;;;;;;;10499147;28;20210;-74
2022/11/25 09:14:21;;;;;;;7.60;4.63;;;;;;;;;;10499943;28;20597;-76
2022/11/25 09:19:22;;;;;;;4.30;3.40;;;;;;;;;;10490386;28;20380;-73
2022/11/25 09:24:23;;;;;;;6.15;4.03;;;;;;;;;;10501191;28;20213;-72
2022/11/25 09:29:26;;;;;;;7.93;3.92;;;;;;;;;;10491271;28;20205;-73
2022/11/25 09:34:27;;;;;;;12.25;4.88;;;;;;;;;;10485614;28;20722;-74
2022/11/25 09:39:29;;;;;;;5.35;3.20;;;;;;;;;;10505107;28;20210;-74
2022/11/25 09:50:13;;;;;;;3.47;3.00;;;;;;;;;;10509685;28;20216;-72
2022/11/25 09:55:16;;;;;;;3.00;2.80;;;;;;;;;;10449996;28;20221;-74
2022/11/25 10:00:18;;;;;;;5.88;2.95;;;;;;;;;;10497767;28;20184;-73
2022/11/25 10:05:32;;;;;;;3.35;2.40;;;;;;;;;;10495940;28;20193;-75
2022/11/25 10:10:40;;;;;;;6.95;3.70;;;;;;;;;;10498774;28;20217;-75
2022/11/25 10:15:43;;;;;;;5.18;3.20;;;;;;;;;;10509688;28;20244;-74
2022/11/25 10:20:45;;;;;;;5.03;3.28;;;;;;;;;;10506509;28;20221;-76
2022/11/25 10:25:47;;;;;;;6.57;3.50;;;;;;;;;;10509922;28;20214;-75
2022/11/25 10:31:00;;;;;;;9.20;3.80;;;;;;;;;;10514489;28;20216;-75
2022/11/25 10:36:10;;;;;;;5.68;3.63;;;;;;;;;;10512385;28;20661;-75
2022/11/25 10:41:14;;;;;;;3.95;3.50;;;;;;;;;;10505107;28;20634;-76
2022/11/25 10:46:24;;;;;;;5.72;3.17;;;;;;;;;;10484048;28;20241;-75
2022/11/25 10:51:57;;;;;;;6.28;4.28;;;;;;;;;;10490639;28;20267;-75
2022/11/25 10:56:59;;;;;;;8.75;4.20;;;;;;;;;;10475460;28;20607;-75
2022/11/25 11:02:13;;;;;;;5.30;3.55;;;;;;;;;;10509301;28;20210;-75
2022/11/25 11:07:14;;;;;;;5.32;2.72;;;;;;;;;;10493660;28;20205;-75
2022/11/25 11:12:15;;;;;;;5.43;3.90;;;;;;;;;;10503719;28;20209;-75
2022/11/25 11:17:33;;;;;;;4.85;3.55;;;;;;;;;;10490385;28;20281;-75
2022/11/25 11:22:35;;;;;;;5.35;3.00;;;;;;;;;;10512684;28;20332;-74
2022/11/25 11:27:37;;;;;;;4.68;3.60;;;;;;;;;;10499945;28;20228;-75
2022/11/25 11:32:41;;;;;;;12.07;3.85;;;;;;;;;;10491179;28;20308;-75
2022/11/25 11:37:47;;;;;;;9.13;3.05;;;;;;;;;;10507048;28;20301;-75
2022/11/25 11:43:06;;;;;;;3.75;2.78;;;;;;;;;;10482752;28;20707;-75
2022/11/25 11:48:16;;;;;;;6.95;3.03;;;;;;;;;;10510692;28;20214;-75
2022/11/25 11:53:36;;;;;;;6.63;3.72;;;;;;;;;;10490203;28;20229;-74
2022/11/25 11:58:40;;;;;;;8.55;3.65;;;;;;;;;;10499500;28;20206;-75
2022/11/25 12:03:49;;;;;;;5.97;3.03;;;;;;;;;;10484925;28;20210;-76
2022/11/25 12:08:57;;;;;;;4.70;3.60;;;;;;;;;;10503416;28;20619;-75
2022/11/25 12:14:05;;;;;;;6.63;3.03;;;;;;;;;;10504999;28;20621;-75
2022/11/25 12:19:13;;;;;;;5.50;3.42;;;;;;;;;;10503462;28;20228;-77
2022/11/25 12:24:33;;;;;;;9.57;4.05;;;;;;;;;;10502799;28;20954;-76
2022/11/25 12:29:53;;;;;;;6.78;3.47;;;;;;;;;;10488435;28;20232;-77
2022/11/25 12:35:03;;;;;;;7.45;4.13;;;;;;;;;;10476557;28;20688;-76
2022/11/25 12:40:14;;;;;;;6.50;3.22;;;;;;;;;;10500242;28;21146;-76
2022/11/25 12:45:22;;;;;;;8.35;3.30;;;;;;;;;;10504821;28;20236;-76
2022/11/25 12:50:28;;;;;;;5.35;3.33;;;;;;;;;;10499081;28;20886;-75
2022/11/25 12:55:30;;;;;;;6.53;3.28;;;;;;;;;;10483910;28;20248;-75
2022/11/25 13:00:49;;;;;;;5.20;3.63;;;;;;;;;;10496117;28;20221;-73
2022/11/25 13:06:10;;;;;;;5.32;3.83;;;;;;;;;;10496880;28;20701;-75
2022/11/25 13:11:14;;;;;;;5.63;4.05;;;;;;;;;;10503053;28;20236;-73
2022/11/25 13:16:17;;;;;;;7.18;4.25;;;;;;;;;;10500191;28;20221;-74
2022/11/25 13:21:20;;;;;;;5.68;4.00;;;;;;;;;;10499978;28;20221;-73
2022/11/25 13:26:35;;;;;;;4.78;4.10;;;;;;;;;;10501332;28;20273;-76
2022/11/25 13:31:55;;;;;;;4.78;3.63;;;;;;;;;;10502410;28;20214;-75
2022/11/25 13:36:57;;;;;;;5.30;4.13;;;;;;;;;;10497230;28;20697;-72
2022/11/25 13:42:00;;;;;;;6.82;4.35;;;;;;;;;;10503154;28;20693;-74
2022/11/25 13:47:20;;;;;;;6.25;4.53;;;;;;;;;;10493938;28;20209;-74
2022/11/25 13:52:32;;;;;;;9.23;4.28;;;;;;;;;;10485223;28;20999;-74
2022/11/25 13:57:34;;;;;;;7.85;6.45;;;;;;;;;;10495270;28;20206;-74
2022/11/25 14:02:40;;;;;;;10.63;6.22;;;;;;;;;;10503485;28;20217;-74
2022/11/25 14:07:41;;;;;;;16.10;7.45;;;;;;;;;;10499395;28;20681;-74
2022/11/25 14:12:42;;;;;;;8.57;6.28;;;;;;;;;;10508467;28;20677;-74
2022/11/25 14:18:02;;;;;;;15.30;6.57;;;;;;;;;;10475087;28;20206;-74
2022/11/25 14:23:18;;;;;;;9.05;4.03;;;;;;;;;;10469020;28;20238;-73
2022/11/25 14:28:26;;;;;;;2.80;2.70;;;;;;;;;;10476282;28;20214;-73
2022/11/25 14:33:37;;;;;;;4.60;2.63;;;;;;;;;;10506433;28;20583;-72
2022/11/25 14:38:41;;;;;;;4.95;3.05;;;;;;;;;;10501538;28;20209;-73
2022/11/25 14:43:45;;;;;;;3.35;3.03;;;;;;;;;;10503215;28;22428;-73
2022/11/25 14:48:52;;;;;;;5.68;2.53;;;;;;;;;;10489881;28;20323;-73
2022/11/25 14:53:54;;;;;;;5.03;3.33;;;;;;;;;;10502245;28;20675;-74
2022/11/25 14:58:56;;;;;;;5.80;2.78;;;;;;;;;;10500901;28;20259;-71
2022/11/25 15:04:12;;;;;;;6.90;3.90;;;;;;;;;;10507097;28;20213;-72
2022/11/25 15:09:19;;;;;;;6.63;6.00;;;;;;;;;;10506020;28;20317;-71
2022/11/25 15:14:25;;;;;;;9.55;5.97;;;;;;;;;;10485897;28;20256;-73
2022/11/25 15:19:31;;;;;;;5.50;2.85;;;;;;;;;;10484557;28;21274;-74
2022/11/25 15:24:39;;;;;;;3.35;2.33;;;;;;;;;;10505759;28;20581;-73
2022/11/25 15:29:41;;;;;;;4.70;1.98;;;;;;;;;;10487983;28;21027;-73
2022/11/25 15:34:43;;;;;;;6.63;2.08;;;;;;;;;;10479337;28;20222;-75
2022/11/25 15:39:45;;;;;;;6.28;2.00;;;;;;;;;;10492659;28;20213;-74
2022/11/25 15:44:54;;;;;;;1.77;1.67;;;;;;;;;;10491150;28;20340;-74
2022/11/25 15:49:55;;;;;;;9.93;2.65;;;;;;;;;;10497255;28;20214;-74
2022/11/25 15:54:59;;;;;;;6.72;2.53;;;;;;;;;;10482323;28;20214;-74
2022/11/25 16:00:00;;;;;;;4.72;2.97;;;;;;;;;;10502164;28;20210;-79
2022/11/25 16:05:14;;;;;;;6.82;4.43;;;;;;;;;;10494701;28;20670;-71
2022/11/25 16:10:47;;;;;;;5.15;4.43;;;;;;;;;;10501214;28;20694;-71
2022/11/25 16:16:00;;;;;;;5.43;3.28;;;;;;;;;;10438267;28;20249;-71
2022/11/25 16:21:07;;;;;;;5.70;3.17;;;;;;;;;;10495276;28;20213;-73
2022/11/25 16:26:11;;;;;;;3.33;2.97;;;;;;;;;;10501077;28;20308;-74
2022/11/25 16:31:14;;;;;;;6.10;3.03;;;;;;;;;;10495756;28;20217;-74
2022/11/25 16:36:15;;;;;;;7.03;3.28;;;;;;;;;;10497075;28;20237;-73
2022/11/25 16:41:21;;;;;;;3.88;3.58;;;;;;;;;;10494192;28;20248;-75
2022/11/25 16:46:23;;;;;;;4.95;3.08;;;;;;;;;;10475043;28;20210;-74
2022/11/25 16:51:24;;;;;;;4.18;3.05;;;;;;;;;;10495871;28;20228;-75
2022/11/25 16:56:28;;;;;;;6.28;3.60;;;;;;;;;;10495010;28;20218;-75
2022/11/25 17:01:30;;;;;;;3.90;3.55;;;;;;;;;;10502473;28;20368;-74
2022/11/25 17:06:31;;;;;;;5.20;2.72;;;;;;;;;;10497470;28;20254;-76
2022/11/25 17:11:53;;;;;;;2.75;2.50;;;;;;;;;;10477711;28;21068;-75
2022/11/25 17:16:54;;;;;;;3.83;2.50;;;;;;;;;;10483035;28;20220;-75
2022/11/25 17:21:55;;;;;;;3.97;3.65;;;;;;;;;;10501715;28;20681;-76
2022/11/25 17:26:59;;;;;;;6.30;5.18;;;;;;;;;;10502453;28;20213;-76
2022/11/25 17:32:01;;;;;;;7.68;6.15;;;;;;;;;;10499124;28;20215;-76
2022/11/25 17:37:03;;;;;;;5.85;5.15;;;;;;;;;;10490157;28;20213;-77
2022/11/25 17:42:05;;;;;;;6.50;5.15;;;;;;;;;;10505552;28;20673;-76
2022/11/25 17:47:10;;;;;;;8.27;5.45;;;;;;;;;;10504736;28;20244;-76
2022/11/25 17:52:11;;;;;;;7.75;5.05;;;;;;;;;;10506036;28;20209;-76
2022/11/25 17:57:15;;;;;;;5.05;4.55;;;;;;;;;;10502110;28;20228;-77
2022/11/25 18:02:20;;;;;;;7.53;3.97;;;;;;;;;;10485301;28;20229;-77
2022/11/25 18:07:21;;;;;;;4.13;3.72;;;;;;;;;;10507244;28;20214;-76
2022/11/25 18:12:29;;;;;;;4.40;4.03;;;;;;;;;;10511738;28;20216;-76
2022/11/25 18:17:30;;;;;;;4.82;3.60;;;;;;;;;;10503110;28;20202;-76
2022/11/25 18:22:31;;;;;;;11.13;5.78;;;;;;;;;;10501601;28;20210;-80
2022/11/25 18:27:32;;;;;;;10.23;6.68;;;;;;;;;;10511040;28;20259;-74
2022/11/25 18:32:33;;;;;;;10.15;5.18;;;;;;;;;;10504555;28;20637;-78
2022/11/25 18:37:34;;;;;;;10.05;4.60;;;;;;;;;;10527478;28;20309;-87
2022/11/25 18:42:36;;;;;;;10.73;5.53;;;;;;;;;;10514127;28;20210;-85
2022/11/25 18:47:37;;;;;;;6.32;5.15;;;;;;;;;;10510304;28;20217;-76
2022/11/25 18:52:38;;;;;;;11.23;5.10;;;;;;;;;;10506287;28;20300;-73
2022/11/25 18:57:40;;;;;;;5.70;4.95;;;;;;;;;;10505252;28;20210;-75
2022/11/25 19:02:41;;;;;;;6.32;5.47;;;;;;;;;;10488198;28;20301;-71
2022/11/25 19:07:43;;;;;;;6.30;4.97;;;;;;;;;;10488998;28;20293;-69
2022/11/25 19:12:46;;;;;;;5.82;5.32;;;;;;;;;;10499476;28;20228;-70
2022/11/25 19:17:50;;;;;;;8.15;5.63;;;;;;;;;;10499293;28;20205;-69
2022/11/25 19:22:51;;;;;;;8.88;6.57;;;;;;;;;;10497030;28;20241;-71
2022/11/25 19:27:55;;;;;;;9.82;6.18;;;;;;;;;;10499865;28;20304;-72
2022/11/25 19:32:56;;;;;;;7.25;6.15;;;;;;;;;;10499880;28;21053;-74
2022/11/25 19:37:58;;;;;;;10.30;6.95;;;;;;;;;;10507593;28;20254;-75
2022/11/25 19:42:59;;;;;;;9.93;7.03;;;;;;;;;;10495939;28;20249;-73
2022/11/25 19:48:02;;;;;;;11.00;6.18;;;;;;;;;;10495789;28;21101;-73
2022/11/25 19:53:03;;;;;;;13.38;7.70;;;;;;;;;;10494385;28;20249;-84
2022/11/25 19:58:04;;;;;;;8.57;7.75;;;;;;;;;;10487552;28;20293;-79
2022/11/25 20:03:10;;;;;;;10.00;7.80;;;;;;;;;;10496195;28;20252;-72
2022/11/25 20:08:17;;;;;;;11.48;7.55;;;;;;;;;;10499164;28;20213;-76
2022/11/25 20:13:18;;;;;;;16.25;8.05;;;;;;;;;;10484125;28;21024;-78
2022/11/25 20:18:21;;;;;;;7.38;6.53;;;;;;;;;;10495156;28;20212;-74
2022/11/25 20:23:30;;;;;;;9.88;6.47;;;;;;;;;;10459904;28;20218;-75
2022/11/25 20:28:32;;;;;;;12.90;6.85;;;;;;;;;;10439632;28;20244;-74
2022/11/25 20:33:33;;;;;;;11.68;7.45;;;;;;;;;;10452668;28;20699;-75
2022/11/25 20:38:35;;;;;;;11.20;6.80;;;;;;;;;;10442072;28;20201;-78
2022/11/25 20:43:40;;;;;;;10.55;6.47;;;;;;;;;;10459187;28;20213;-75
2022/11/25 20:48:41;;;;;;;12.30;6.25;;;;;;;;;;10458004;28;20230;-75
2022/11/25 20:53:44;;;;;;;11.88;7.05;;;;;;;;;;10436693;28;20218;-73
2022/11/25 20:58:46;;;;;;;10.90;6.93;;;;;;;;;;10453659;28;20260;-74
2022/11/25 21:03:48;;;;;;;8.32;6.75;;;;;;;;;;10443812;28;20699;-74
2022/11/25 21:08:51;;;;;;;12.23;6.60;;;;;;;;;;10458324;28;20218;-73
2022/11/25 21:13:52;;;;;;;11.43;6.80;;;;;;;;;;10447044;28;20226;-75
2022/11/25 21:18:53;;;;;;;11.02;6.90;;;;;;;;;;10456844;28;20198;-71
2022/11/25 21:23:54;;;;;;;12.93;7.13;;;;;;;;;;10493533;28;20617;-72
2022/11/25 21:28:55;;;;;;;11.80;7.63;;;;;;;;;;10506711;28;20209;-76
2022/11/25 21:33:57;;;;;;;12.18;7.60;;;;;;;;;;10507965;28;20249;-75
2022/11/25 21:39:04;;;;;;;13.23;7.80;;;;;;;;;;10489382;28;20712;-73
2022/11/25 21:44:07;;;;;;;12.13;7.53;;;;;;;;;;10502222;28;20211;-71
2022/11/25 21:49:10;;;;;;;17.73;7.97;;;;;;;;;;10487102;28;20225;-73
2022/11/25 21:54:11;;;;;;;16.83;7.05;;;;;;;;;;10497683;28;20213;-75
2022/11/25 21:59:18;;;;;;;17.58;8.50;;;;;;;;;;10489798;28;20209;-75
2022/11/25 22:04:20;;;;;;;17.27;9.52;;;;;;;;;;10505244;28;20550;-76
2022/11/25 22:09:21;;;;;;;22.52;11.77;;;;;;;;;;10506768;28;21032;-76
2022/11/25 22:14:27;;;;;;;15.38;9.48;;;;;;;;;;10495107;28;20210;-78
2022/11/25 22:19:29;;;;;;;17.20;8.07;;;;;;;;;;10506139;28;20692;-78
2022/11/25 22:24:31;;;;;;;17.92;8.68;;;;;;;;;;10500248;28;20214;-78
2022/11/25 22:29:34;;;;;;;19.15;8.15;;;;;;;;;;10495107;28;20209;-78
2022/11/25 22:34:35;;;;;;;13.65;7.90;;;;;;;;;;10508777;28;20243;-77
2022/11/25 22:39:36;;;;;;;18.40;7.75;;;;;;;;;;10509455;28;20213;-77
2022/11/25 22:44:38;;;;;;;12.65;7.55;;;;;;;;;;10492090;28;20201;-77
2022/11/25 22:49:41;;;;;;;16.70;7.45;;;;;;;;;;10512733;28;20321;-77
2022/11/25 22:54:43;;;;;;;12.32;6.85;;;;;;;;;;10507625;28;20567;-77
2022/11/25 22:59:44;;;;;;;14.40;6.55;;;;;;;;;;10508390;28;20629;-77
2022/11/25 23:04:52;;;;;;;13.93;7.32;;;;;;;;;;10508967;28;20732;-77
2022/11/25 23:09:55;;;;;;;13.13;8.23;;;;;;;;;;10488666;28;20228;-77
2022/11/25 23:14:56;;;;;;;19.77;7.72;;;;;;;;;;10510815;28;20583;-77
2022/11/25 23:19:57;;;;;;;18.52;9.10;;;;;;;;;;10512732;28;20222;-77
2022/11/25 23:24:58;;;;;;;14.73;8.13;;;;;;;;;;10503586;28;20971;-76
2022/11/25 23:29:59;;;;;;;15.13;9.23;;;;;;;;;;10504282;28;20210;-76
2022/11/25 23:35:00;;;;;;;26.38;11.18;;;;;;;;;;10492364;28;20925;-76
2022/11/25 23:40:01;;;;;;;24.67;12.10;;;;;;;;;;10506729;28;20230;-76
2022/11/25 23:45:05;;;;;;;20.40;12.98;;;;;;;;;;10506436;28;20216;-75
2022/11/25 23:50:06;;;;;;;24.75;14.95;;;;;;;;;;10492954;28;20176;-77
2022/11/25 23:55:12;;;;;;;21.55;13.20;;;;;;;;;;10490238;28;20213;-76
